Time;durP1;ratioP1;P1;durP2;ratioP2;P2;SDS_P1;SDS_P2;PMS_P1;PMS_P2;Temp;Humidity;BMP_temperature;BMP_pressure;BME280_temperature;BME280_humidity;BME280_pressure;Samples;Min_cycle;Max_cycle;Signal;HPM_P1;HPM_P2
2023/09/22 00:00:24;;;;;;;;;;;;;;;24.62;47.03;98812.63;4995853;28;19918;-75
2023/09/22 00:02:49;;;;;;;;;;;;;;;24.61;47.03;98808.28;4994605;28;20364;-76
2023/09/22 00:05:15;;;;;;;;;;;;;;;24.57;46.71;98815.06;4978447;28;19929;-77
2023/09/22 00:07:40;;;;;;;;;;;;;;;24.54;46.81;98824.28;4994709;28;19918;-77
2023/09/22 00:10:07;;;;;;;;;;;;;;;24.54;46.86;98823.44;4996217;28;19922;-77
2023/09/22 00:12:32;;;;;;;;;;;;;;;24.55;46.82;98817.09;4995826;28;19917;-77
2023/09/22 00:14:58;;;;;;;;;;;;;;;24.53;46.63;98822.63;4995424;28;20060;-77
2023/09/22 00:17:24;;;;;;;;;;;;;;;24.52;46.74;98817.50;4978168;28;19987;-78
2023/09/22 00:19:49;;;;;;;;;;;;;;;24.50;46.33;98812.38;4996152;28;20367;-77
2023/09/22 00:22:15;;;;;;;;;;;;;;;24.48;46.26;98811.75;4994536;28;19918;-77
2023/09/22 00:24:41;;;;;;;;;;;;;;;24.46;46.30;98815.66;4995605;28;20369;-77
2023/09/22 00:27:06;;;;;;;;;;;;;;;24.42;46.53;98817.09;4994313;28;19928;-77
2023/09/22 00:29:31;;;;;;;;;;;;;;;24.41;46.52;98818.94;4994386;28;20381;-77
2023/09/22 00:31:57;;;;;;;;;;;;;;;24.39;46.67;98816.47;4995741;28;19925;-77
2023/09/22 00:34:22;;;;;;;;;;;;;;;24.35;46.84;98804.56;4994164;28;19921;-77
2023/09/22 00:36:49;;;;;;;;;;;;;;;24.35;46.69;98809.06;4978073;28;19918;-77
2023/09/22 00:39:14;;;;;;;;;;;;;;;24.33;46.59;98811.13;4995385;28;19989;-77
2023/09/22 00:41:39;;;;;;;;;;;;;;;24.32;46.66;98807.66;4977827;28;19976;-76
2023/09/22 00:44:05;;;;;;;;;;;;;;;24.30;46.58;98799.00;4977807;28;19922;-77
2023/09/22 00:46:30;;;;;;;;;;;;;;;24.29;46.78;98800.06;4993363;28;20013;-77
2023/09/22 00:48:56;;;;;;;;;;;;;;;24.28;46.83;98800.25;4993567;28;19922;-76
2023/09/22 00:51:21;;;;;;;;;;;;;;;24.26;46.77;98808.47;4977081;28;19922;-77
2023/09/22 00:53:47;;;;;;;;;;;;;;;24.23;46.79;98808.03;4994186;28;20037;-78
2023/09/22 00:56:13;;;;;;;;;;;;;;;24.22;46.77;98817.88;4995422;28;19996;-77
2023/09/22 00:58:38;;;;;;;;;;;;;;;24.19;46.79;98812.97;4993948;28;19922;-77
2023/09/22 01:01:04;;;;;;;;;;;;;;;24.17;46.92;98823.81;4993878;28;19918;-77
2023/09/22 01:03:29;;;;;;;;;;;;;;;24.13;46.90;98819.09;4977680;28;20369;-75
2023/09/22 01:05:55;;;;;;;;;;;;;;;24.09;46.86;98813.38;4993657;28;19918;-77
2023/09/22 01:08:20;;;;;;;;;;;;;;;24.07;46.65;98822.56;4993970;28;19918;-77
2023/09/22 01:10:46;;;;;;;;;;;;;;;24.03;46.73;98817.66;4997696;28;19944;-76
2023/09/22 01:13:11;;;;;;;;;;;;;;;24.00;46.80;98811.91;4986746;28;19973;-76
2023/09/22 01:15:37;;;;;;;;;;;;;;;23.97;46.91;98817.63;4992292;28;20301;-77
2023/09/22 01:18:04;;;;;;;;;;;;;;;23.93;46.83;98819.09;4996981;28;20016;-76
2023/09/22 01:20:29;;;;;;;;;;;;;;;23.88;47.05;98819.69;4996345;28;20016;-77
2023/09/22 01:22:54;;;;;;;;;;;;;;;23.82;47.08;98812.47;4994883;28;19992;-76
2023/09/22 01:25:20;;;;;;;;;;;;;;;23.80;47.13;98803.84;4994050;28;20481;-76
2023/09/22 01:27:45;;;;;;;;;;;;;;;23.74;47.00;98799.31;4994252;28;19918;-76
2023/09/22 01:30:11;;;;;;;;;;;;;;;23.72;47.22;98801.34;4977169;28;19969;-76
2023/09/22 01:32:39;;;;;;;;;;;;;;;23.67;47.30;98800.13;4993441;28;19921;-76
2023/09/22 01:35:07;;;;;;;;;;;;;;;23.65;47.41;98810.13;4993472;28;19918;-76
2023/09/22 01:37:32;;;;;;;;;;;;;;;23.62;47.30;98807.88;4993553;28;20064;-76
2023/09/22 01:39:58;;;;;;;;;;;;;;;23.59;47.36;98807.47;4976888;28;20334;-76
2023/09/22 01:42:23;;;;;;;;;;;;;;;23.56;47.21;98811.34;4977148;28;19925;-76
2023/09/22 01:44:48;;;;;;;;;;;;;;;23.56;47.51;98813.19;4994304;28;19924;-76
2023/09/22 01:47:14;;;;;;;;;;;;;;;23.52;47.25;98812.75;4993154;28;19953;-76
2023/09/22 01:49:39;;;;;;;;;;;;;;;23.47;47.36;98801.91;4993257;28;19940;-77
2023/09/22 01:52:04;;;;;;;;;;;;;;;23.43;47.37;98796.13;4993385;28;19918;-77
2023/09/22 01:54:29;;;;;;;;;;;;;;;23.38;47.31;98787.91;4992022;28;19929;-77
2023/09/22 01:56:55;;;;;;;;;;;;;;;23.37;47.36;98793.44;4992763;28;19926;-77
2023/09/22 01:59:22;;;;;;;;;;;;;;;23.34;47.32;98793.81;4976420;28;20313;-77
2023/09/22 02:01:47;;;;;;;;;;;;;;;23.30;47.41;98794.22;4992447;28;19918;-77
2023/09/22 02:04:13;;;;;;;;;;;;;;;23.28;47.58;98785.63;4992650;28;19918;-77
2023/09/22 02:06:39;;;;;;;;;;;;;;;23.28;47.41;98801.59;4994166;28;19918;-76
2023/09/22 02:09:04;;;;;;;;;;;;;;;23.28;47.65;98808.78;4992974;28;19917;-77
2023/09/22 02:11:30;;;;;;;;;;;;;;;23.26;47.32;98816.13;4993132;28;19924;-77
2023/09/22 02:13:56;;;;;;;;;;;;;;;23.26;47.46;98810.78;4993990;28;20348;-77
2023/09/22 02:16:21;;;;;;;;;;;;;;;23.27;47.24;98799.13;4993304;28;19928;-77
2023/09/22 02:18:46;;;;;;;;;;;;;;;23.26;47.30;98792.16;4976587;28;19991;-77
2023/09/22 02:21:13;;;;;;;;;;;;;;;23.25;47.39;98796.66;4993886;28;19925;-77
2023/09/22 02:23:38;;;;;;;;;;;;;;;23.23;47.29;98801.38;4994052;28;19925;-77
2023/09/22 02:26:06;;;;;;;;;;;;;;;23.21;47.22;98798.06;4992572;28;19918;-77
2023/09/22 02:28:32;;;;;;;;;;;;;;;23.18;47.16;98795.78;4976197;28;19918;-77
2023/09/22 02:30:57;;;;;;;;;;;;;;;23.17;47.35;98810.16;4992170;28;19918;-76
2023/09/22 02:33:22;;;;;;;;;;;;;;;23.16;47.14;98819.16;4976152;28;19925;-76
2023/09/22 02:35:48;;;;;;;;;;;;;;;23.15;47.30;98830.84;4992523;28;19925;-76
2023/09/22 02:38:13;;;;;;;;;;;;;;;23.11;47.46;98810.94;4991500;28;19921;-76
2023/09/22 02:40:38;;;;;;;;;;;;;;;23.09;47.50;98813.78;4992574;28;19918;-76
2023/09/22 02:43:05;;;;;;;;;;;;;;;23.08;47.44;98817.47;4992396;28;20117;-77
2023/09/22 02:45:30;;;;;;;;;;;;;;;23.06;47.48;98822.13;4992440;28;19921;-77
2023/09/22 02:47:55;;;;;;;;;;;;;;;23.04;47.52;98815.34;4992995;28;19984;-76
2023/09/22 02:50:21;;;;;;;;;;;;;;;23.02;47.50;98825.38;4976413;28;19918;-77
2023/09/22 02:52:46;;;;;;;;;;;;;;;22.98;47.48;98816.97;4985438;28;20365;-77
2023/09/22 02:55:13;;;;;;;;;;;;;;;22.94;47.58;98824.53;4972592;28;19922;-77
2023/09/22 02:57:38;;;;;;;;;;;;;;;22.93;47.58;98833.53;4990552;28;19928;-77
2023/09/22 03:00:20;;;;;;;;;;;;;;;22.93;47.69;98832.72;4990058;28;19917;-77
2023/09/22 03:02:48;;;;;;;;;;;;;;;22.92;47.68;98834.53;4973451;28;19950;-77
2023/09/22 03:05:17;;;;;;;;;;;;;;;22.92;47.61;98828.41;4956555;28;20017;-77
2023/09/22 03:07:43;;;;;;;;;;;;;;;22.90;47.62;98831.25;4977207;28;19918;-77
2023/09/22 03:10:10;;;;;;;;;;;;;;;22.88;47.73;98830.63;4993069;28;20370;-77
2023/09/22 03:12:36;;;;;;;;;;;;;;;22.86;47.79;98834.50;4996159;28;19964;-76
2023/09/22 03:15:03;;;;;;;;;;;;;;;22.85;47.77;98822.19;4979640;28;19917;-77
2023/09/22 03:17:28;;;;;;;;;;;;;;;22.83;47.84;98814.41;4997198;28;19922;-77
2023/09/22 03:19:53;;;;;;;;;;;;;;;22.82;47.77;98810.13;4997267;28;20005;-77
2023/09/22 03:22:19;;;;;;;;;;;;;;;22.79;47.75;98799.03;4995585;28;19953;-77
2023/09/22 03:24:44;;;;;;;;;;;;;;;22.78;48.16;98806.19;4996555;28;20425;-76
2023/09/22 03:27:09;;;;;;;;;;;;;;;22.78;48.30;98819.50;4994779;28;19922;-79
2023/09/22 03:29:35;;;;;;;;;;;;;;;22.79;47.94;98833.63;4995807;28;19925;-76
2023/09/22 03:32:00;;;;;;;;;;;;;;;22.80;48.09;98833.41;4995741;28;20289;-80
2023/09/22 03:34:27;;;;;;;;;;;;;;;22.80;48.12;98830.75;4996951;28;19922;-77
2023/09/22 03:36:52;;;;;;;;;;;;;;;22.77;47.91;98837.31;4978967;28;19918;-80
2023/09/22 03:39:21;;;;;;;;;;;;;;;22.80;48.10;98828.09;4995245;28;19922;-78
2023/09/22 03:41:52;;;;;;;;;;;;;;;22.86;47.91;98826.50;4980536;28;19922;-77
2023/09/22 03:44:17;;;;;;;;;;;;;;;22.87;47.76;98826.31;4980240;28;19969;-76
2023/09/22 03:46:42;;;;;;;;;;;;;;;22.91;47.74;98826.75;4995860;28;20382;-77
2023/09/22 03:49:07;;;;;;;;;;;;;;;22.93;47.81;98822.88;4995580;28;19922;-77
2023/09/22 03:51:33;;;;;;;;;;;;;;;22.94;47.71;98824.53;4979490;28;19918;-77
2023/09/22 03:53:58;;;;;;;;;;;;;;;22.97;47.88;98825.97;4996634;28;20292;-77
2023/09/22 03:56:24;;;;;;;;;;;;;;;22.98;47.60;98827.63;4994733;28;19930;-77
2023/09/22 03:58:49;;;;;;;;;;;;;;;22.99;47.42;98829.25;4979489;28;19972;-78
2023/09/22 04:01:15;;;;;;;;;;;;;;;23.01;47.65;98834.38;4994656;28;20365;-77
2023/09/22 04:03:40;;;;;;;;;;;;;;;23.01;47.54;98827.22;4994960;28;19922;-77
2023/09/22 04:06:05;;;;;;;;;;;;;;;23.02;47.83;98828.03;4978591;28;20056;-77
2023/09/22 04:08:31;;;;;;;;;;;;;;;23.03;47.68;98835.03;4995001;28;19991;-77
2023/09/22 04:10:57;;;;;;;;;;;;;;;23.06;47.80;98837.28;4996087;28;19925;-77
2023/09/22 04:13:24;;;;;;;;;;;;;;;23.14;47.67;98829.19;4979167;28;19924;-76
2023/09/22 04:15:59;;;;;;;;;;;;;;;23.24;47.32;98836.81;4994779;28;19960;-77
2023/09/22 04:18:26;;;;;;;;;;;;;;;23.35;46.86;98832.78;4994570;28;19918;-76
2023/09/22 04:20:51;;;;;;;;;;;;;;;23.52;46.84;98828.75;4978725;28;19918;-77
2023/09/22 04:23:16;;;;;;;;;;;;;;;23.67;46.28;98831.25;4993773;28;20297;-77
2023/09/22 04:25:42;;;;;;;;;;;;;;;23.67;46.03;98818.78;4994490;28;19918;-77
2023/09/22 04:28:11;;;;;;;;;;;;;;;23.74;46.12;98812.66;4978250;28;20317;-77
2023/09/22 04:30:36;;;;;;;;;;;;;;;23.72;46.28;98828.84;4978604;28;19921;-77
2023/09/22 04:33:02;;;;;;;;;;;;;;;23.72;46.14;98831.50;4993853;28;19926;-78
2023/09/22 04:35:32;;;;;;;;;;;;;;;23.75;46.24;98819.59;4994331;28;19976;-76
2023/09/22 04:37:57;;;;;;;;;;;;;;;23.81;46.02;98827.59;4977606;28;20481;-82
2023/09/22 04:40:24;;;;;;;;;;;;;;;23.97;45.84;98829.16;5013360;28;20016;-78
2023/09/22 04:42:53;;;;;;;;;;;;;;;24.80;44.18;98829.84;5013281;28;19921;-78
2023/09/22 04:45:18;;;;;;;;;;;;;;;25.07;43.08;98830.63;5013300;28;19945;-78
2023/09/22 04:47:46;;;;;;;;;;;;;;;24.81;43.74;98828.78;5013389;28;19967;-78
2023/09/22 04:50:15;;;;;;;;;;;;;;;24.76;44.12;98815.25;5012823;28;20044;-79
2023/09/22 04:52:40;;;;;;;;;;;;;;;24.99;43.68;98831.66;5014471;28;19929;-79
2023/09/22 04:55:06;;;;;;;;;;;;;;;25.83;42.02;98829.13;5013158;28;20316;-77
2023/09/22 04:57:31;;;;;;;;;;;;;;;26.50;40.79;98837.56;5014112;28;20325;-77
2023/09/22 04:59:57;;;;;;;;;;;;;;;27.02;39.98;98837.31;5015054;28;20012;-75
2023/09/22 05:02:22;;;;;;;;;;;;;;;27.67;38.75;98832.50;4984695;28;19921;-77
2023/09/22 05:04:48;;;;;;;;;;;;;;;28.12;37.56;98835.63;4994299;28;19925;-78
2023/09/22 05:07:13;;;;;;;;;;;;;;;28.56;36.83;98839.91;4994008;28;19976;-77
2023/09/22 05:09:39;;;;;;;;;;;;;;;28.85;36.11;98838.19;4995117;28;19918;-77
2023/09/22 05:12:05;;;;;;;;;;;;;;;28.79;36.37;98853.38;4993884;28;19918;-78
2023/09/22 05:14:30;;;;;;;;;;;;;;;28.73;36.53;98856.19;4977181;28;19945;-77
2023/09/22 05:16:55;;;;;;;;;;;;;;;28.89;35.97;98863.53;4977363;28;19922;-77
2023/09/22 05:19:21;;;;;;;;;;;;;;;28.96;35.86;98858.06;4993716;28;19918;-77
2023/09/22 05:21:47;;;;;;;;;;;;;;;28.82;35.92;98862.84;4984795;28;19980;-77
2023/09/22 05:24:12;;;;;;;;;;;;;;;28.66;35.99;98861.66;4957708;28;19922;-78
2023/09/22 05:26:37;;;;;;;;;;;;;;;28.29;36.25;98859.09;4984705;28;19941;-78
2023/09/22 05:29:03;;;;;;;;;;;;;;;28.03;36.63;98863.81;4994549;28;19957;-76
2023/09/22 05:31:28;;;;;;;;;;;;;;;27.77;37.24;98868.47;4993098;28;19964;-77
2023/09/22 05:33:55;;;;;;;;;;;;;;;27.54;37.60;98869.16;4976778;28;19918;-78
2023/09/22 05:36:20;;;;;;;;;;;;;;;27.95;38.14;98870.31;4993837;28;20381;-79
2023/09/22 05:38:45;;;;;;;;;;;;;;;27.87;38.27;98875.16;4992916;28;19917;-77
2023/09/22 05:41:11;;;;;;;;;;;;;;;28.06;38.33;98868.72;4993303;28;19917;-79
2023/09/22 05:43:38;;;;;;;;;;;;;;;28.54;37.43;98874.22;4994241;28;19921;-77
2023/09/22 05:46:04;;;;;;;;;;;;;;;28.97;36.77;98876.63;4998578;28;19995;-79
2023/09/22 05:48:30;;;;;;;;;;;;;;;29.46;35.66;98876.38;4979707;28;20320;-79
2023/09/22 05:50:56;;;;;;;;;;;;;;;29.20;36.16;98893.81;5004132;28;19932;-78
2023/09/22 05:53:21;;;;;;;;;;;;;;;29.12;36.27;98888.78;4984627;28;19925;-81
2023/09/22 05:55:47;;;;;;;;;;;;;;;29.19;36.09;98894.88;4985906;28;20356;-79
2023/09/22 05:58:13;;;;;;;;;;;;;;;29.16;37.03;98900.69;4995985;28;19922;-73
2023/09/22 06:00:39;;;;;;;;;;;;;;;29.15;36.56;98909.81;4996069;28;20352;-85
2023/09/22 06:03:05;;;;;;;;;;;;;;;29.13;36.44;98910.03;4977088;28;20021;-86
2023/09/22 06:05:31;;;;;;;;;;;;;;;29.13;36.41;98912.75;4993426;28;19917;-84
2023/09/22 06:07:57;;;;;;;;;;;;;;;29.16;36.66;98906.91;4994207;28;20017;-74
2023/09/22 06:10:22;;;;;;;;;;;;;;;29.63;35.33;98902.53;5000976;28;19928;-87
2023/09/22 06:12:49;;;;;;;;;;;;;;;29.85;35.64;98905.44;5000313;28;19945;-90
2023/09/22 06:15:15;;;;;;;;;;;;;;;30.63;34.27;98912.00;4997402;28;20297;-72
2023/09/22 06:17:41;;;;;;;;;;;;;;;31.40;32.10;98912.34;4996826;28;20341;-82
2023/09/22 06:20:13;;;;;;;;;;;;;;;31.99;31.74;98906.34;4993683;28;19981;-79
2023/09/22 06:22:38;;;;;;;;;;;;;;;32.43;30.58;98897.34;4977565;28;19973;-80
2023/09/22 06:25:04;;;;;;;;;;;;;;;32.64;30.73;98896.47;4978074;28;19918;-88
2023/09/22 06:27:30;;;;;;;;;;;;;;;33.02;29.64;98903.75;4993182;28;19917;-81
2023/09/22 06:29:55;;;;;;;;;;;;;;;33.27;29.02;98903.13;4994416;28;20443;-78
2023/09/22 06:32:20;;;;;;;;;;;;;;;33.44;28.59;98911.09;4992433;28;19961;-82
2023/09/22 06:34:46;;;;;;;;;;;;;;;33.43;28.10;98910.28;4989503;28;20447;-81
2023/09/22 06:37:12;;;;;;;;;;;;;;;33.59;27.56;98911.16;4991397;28;21268;-80
2023/09/22 06:39:37;;;;;;;;;;;;;;;33.44;27.77;98919.19;4974784;28;20372;-82
2023/09/22 06:42:03;;;;;;;;;;;;;;;33.61;28.01;98911.69;4982330;28;20021;-77
2023/09/22 06:44:28;;;;;;;;;;;;;;;33.51;27.42;98908.94;4974597;28;19925;-79
2023/09/22 06:46:53;;;;;;;;;;;;;;;33.22;27.63;98916.63;4974510;28;19918;-77
2023/09/22 06:49:19;;;;;;;;;;;;;;;33.85;26.76;98912.09;4977617;28;19918;-77
2023/09/22 06:51:44;;;;;;;;;;;;;;;33.69;27.32;98908.47;4978126;28;20087;-76
2023/09/22 06:54:10;;;;;;;;;;;;;;;34.19;26.36;98908.09;4978319;28;20395;-78
2023/09/22 06:56:36;;;;;;;;;;;;;;;34.55;26.24;98916.28;4978219;28;19926;-79
2023/09/22 06:59:02;;;;;;;;;;;;;;;34.90;25.70;98906.56;4978238;28;20444;-79
2023/09/22 07:01:27;;;;;;;;;;;;;;;35.17;25.66;98903.53;4976645;28;19925;-78
2023/09/22 07:03:53;;;;;;;;;;;;;;;35.55;25.21;98914.00;4961051;28;20083;-79
2023/09/22 07:06:19;;;;;;;;;;;;;;;35.77;24.65;98903.66;4961489;28;19918;-79
2023/09/22 07:08:45;;;;;;;;;;;;;;;36.14;24.25;98904.25;4961041;28;19973;-79
2023/09/22 07:11:10;;;;;;;;;;;;;;;36.29;24.45;98909.59;4976910;28;20389;-79
2023/09/22 07:13:37;;;;;;;;;;;;;;;36.50;24.28;98910.25;4977846;28;20435;-79
2023/09/22 07:16:02;;;;;;;;;;;;;;;36.72;23.61;98917.97;4976780;28;19925;-78
2023/09/22 07:18:27;;;;;;;;;;;;;;;36.94;23.66;98919.41;4977661;28;19919;-76
2023/09/22 07:20:53;;;;;;;;;;;;;;;37.04;23.23;98921.25;4977871;28;19925;-79
2023/09/22 07:23:19;;;;;;;;;;;;;;;37.20;23.27;98919.19;4977759;28;20370;-80
2023/09/22 07:25:44;;;;;;;;;;;;;;;37.40;23.17;98920.88;4960510;28;20004;-78
2023/09/22 07:28:11;;;;;;;;;;;;;;;37.55;22.79;98911.72;4976364;28;20457;-77
2023/09/22 07:30:36;;;;;;;;;;;;;;;37.17;22.78;98906.16;4977585;28;20393;-78
2023/09/22 07:33:02;;;;;;;;;;;;;;;37.49;22.58;98913.69;4976503;28;20000;-78
2023/09/22 07:35:27;;;;;;;;;;;;;;;37.61;22.39;98908.63;4977618;28;20305;-78
2023/09/22 07:37:52;;;;;;;;;;;;;;;37.77;22.19;98911.19;4977559;28;19918;-77
2023/09/22 07:40:17;;;;;;;;;;;;;;;37.87;21.87;98912.97;4977545;28;19918;-77
2023/09/22 07:42:44;;;;;;;;;;;;;;;37.97;22.36;98910.09;4977334;28;19941;-79
2023/09/22 07:45:09;;;;;;;;;;;;;;;38.11;22.12;98908.28;4976299;28;19918;-79
2023/09/22 07:47:35;;;;;;;;;;;;;;;38.27;21.49;98911.59;4976489;28;19918;-79
2023/09/22 07:50:01;;;;;;;;;;;;;;;38.22;21.86;98908.94;4976274;28;19918;-78
2023/09/22 07:52:26;;;;;;;;;;;;;;;38.25;21.21;98908.34;4977426;28;20301;-77
2023/09/22 07:54:53;;;;;;;;;;;;;;;38.39;21.60;98904.88;4960171;28;19988;-78
2023/09/22 07:57:19;;;;;;;;;;;;;;;38.52;20.94;98906.84;4975648;28;19982;-77
2023/09/22 07:59:44;;;;;;;;;;;;;;;38.31;21.43;98898.19;4976688;28;19922;-77
2023/09/22 08:02:10;;;;;;;;;;;;;;;38.32;20.89;98902.53;4976994;28;20344;-78
2023/09/22 08:04:35;;;;;;;;;;;;;;;38.36;21.36;98898.91;4976139;28;19925;-77
2023/09/22 08:07:00;;;;;;;;;;;;;;;38.47;21.34;98901.47;4976038;28;20524;-76
2023/09/22 08:09:26;;;;;;;;;;;;;;;38.63;21.03;98899.31;4976198;28;20301;-77
2023/09/22 08:11:52;;;;;;;;;;;;;;;38.77;20.77;98902.09;4975617;28;20005;-78
2023/09/22 08:14:17;;;;;;;;;;;;;;;38.83;20.84;98898.16;4975936;28;20325;-78
2023/09/22 08:16:43;;;;;;;;;;;;;;;38.76;20.55;98895.81;4977238;28;19925;-77
2023/09/22 08:19:11;;;;;;;;;;;;;;;38.77;20.99;98894.72;4977248;28;19969;-77
2023/09/22 08:21:39;;;;;;;;;;;;;;;38.82;20.88;98888.34;4975635;28;20330;-77
2023/09/22 08:24:05;;;;;;;;;;;;;;;38.72;20.79;98890.16;4975682;28;19925;-77
2023/09/22 08:26:31;;;;;;;;;;;;;;;38.95;21.10;98884.84;4975362;28;19918;-78
2023/09/22 08:28:56;;;;;;;;;;;;;;;39.17;20.52;98889.66;4975344;28;19972;-77
2023/09/22 08:31:21;;;;;;;;;;;;;;;39.30;20.40;98881.75;4959160;28;19922;-78
2023/09/22 08:33:47;;;;;;;;;;;;;;;39.46;20.33;98880.34;4976721;28;19919;-79
2023/09/22 08:36:12;;;;;;;;;;;;;;;39.31;20.49;98877.91;4976312;28;19922;-78
2023/09/22 08:38:37;;;;;;;;;;;;;;;39.41;20.29;98883.16;4976156;28;19976;-78
2023/09/22 08:41:03;;;;;;;;;;;;;;;39.33;20.54;98881.13;4974918;28;19918;-77
2023/09/22 08:43:29;;;;;;;;;;;;;;;39.47;20.31;98875.66;4974826;28;20413;-77
2023/09/22 08:45:54;;;;;;;;;;;;;;;39.11;20.51;98877.22;4975157;28;19918;-78
2023/09/22 08:48:20;;;;;;;;;;;;;;;39.37;20.63;98874.75;4976205;28;20409;-77
2023/09/22 08:50:45;;;;;;;;;;;;;;;39.47;20.27;98876.47;4977160;28;19918;-77
2023/09/22 08:53:11;;;;;;;;;;;;;;;39.45;20.11;98874.03;4974800;28;19918;-78
2023/09/22 08:55:38;;;;;;;;;;;;;;;39.41;20.05;98867.59;4976044;28;19970;-78
2023/09/22 08:58:03;;;;;;;;;;;;;;;38.94;20.64;98872.31;4958904;28;19994;-78
2023/09/22 09:00:29;;;;;;;;;;;;;;;39.20;20.58;98867.19;4974922;28;19993;-77
2023/09/22 09:02:58;;;;;;;;;;;;;;;39.32;20.56;98866.69;4974834;28;20023;-79
2023/09/22 09:05:29;;;;;;;;;;;;;;;39.42;20.21;98858.25;4974867;28;19918;-78
2023/09/22 09:07:56;;;;;;;;;;;;;;;39.44;20.72;98863.41;4958901;28;19922;-76
2023/09/22 09:10:25;;;;;;;;;;;;;;;39.44;20.38;98856.06;4958165;28;19918;-76
2023/09/22 09:12:50;;;;;;;;;;;;;;;39.41;20.45;98861.31;4975433;28;19969;-79
2023/09/22 09:15:16;;;;;;;;;;;;;;;39.28;20.38;98857.47;4976456;28;19922;-78
2023/09/22 09:17:41;;;;;;;;;;;;;;;39.43;20.54;98859.91;4974370;28;19949;-76
2023/09/22 09:20:07;;;;;;;;;;;;;;;39.37;20.89;98854.84;4975538;28;19961;-78
2023/09/22 09:22:33;;;;;;;;;;;;;;;39.38;20.79;98856.47;4958249;28;20364;-78
2023/09/22 09:25:02;;;;;;;;;;;;;;;39.39;20.94;98853.41;4975393;28;19918;-77
2023/09/22 09:27:28;;;;;;;;;;;;;;;39.31;20.99;98850.59;4974005;28;19918;-78
2023/09/22 09:29:53;;;;;;;;;;;;;;;39.30;20.90;98846.25;4974179;28;19918;-78
2023/09/22 09:32:23;;;;;;;;;;;;;;;39.30;20.97;98844.34;4974395;28;20034;-77
2023/09/22 09:34:48;;;;;;;;;;;;;;;39.25;20.97;98836.25;4975527;28;19922;-80
2023/09/22 09:37:14;;;;;;;;;;;;;;;39.11;21.25;98846.38;4958086;28;19973;-81
2023/09/22 09:39:45;;;;;;;;;;;;;;;38.95;21.40;98838.47;4958208;28;19919;-80
2023/09/22 09:42:14;;;;;;;;;;;;;;;38.78;21.36;98839.06;4957759;28;20401;-78
2023/09/22 09:44:40;;;;;;;;;;;;;;;38.73;21.25;98836.44;4975666;28;19918;-78
2023/09/22 09:47:06;;;;;;;;;;;;;;;38.75;21.81;98836.94;4974075;28;20005;-77
2023/09/22 09:49:32;;;;;;;;;;;;;;;38.71;21.52;98833.19;4957857;28;19940;-76
2023/09/22 09:51:57;;;;;;;;;;;;;;;38.68;21.65;98834.59;4973619;28;19977;-78
2023/09/22 09:54:24;;;;;;;;;;;;;;;38.46;21.78;98831.69;4957482;28;20301;-79
2023/09/22 09:56:49;;;;;;;;;;;;;;;38.51;21.79;98826.16;4973772;28;19969;-77
2023/09/22 09:59:15;;;;;;;;;;;;;;;38.43;22.11;98824.09;4957902;28;19961;-78
2023/09/22 10:01:41;;;;;;;;;;;;;;;38.30;22.07;98820.22;4957292;28;20352;-78
2023/09/22 10:04:06;;;;;;;;;;;;;;;38.21;21.68;98811.94;4957597;28;19922;-78
2023/09/22 10:06:32;;;;;;;;;;;;;;;38.07;22.19;98813.78;4958035;28;19976;-76
2023/09/22 10:08:57;;;;;;;;;;;;;;;37.93;22.36;98811.00;4957711;28;20293;-78
2023/09/22 10:11:22;;;;;;;;;;;;;;;37.91;21.79;98813.22;4974988;28;19926;-77
2023/09/22 10:13:48;;;;;;;;;;;;;;;37.79;22.41;98810.94;4974740;28;19925;-78
2023/09/22 10:16:13;;;;;;;;;;;;;;;37.68;22.32;98804.00;4974835;28;19918;-77
2023/09/22 10:18:45;;;;;;;;;;;;;;;37.46;22.07;98800.75;4957195;28;19925;-78
2023/09/22 10:21:29;;;;;;;;;;;;;;;37.40;22.47;98801.94;4957323;28;20401;-77
2023/09/22 10:24:13;;;;;;;;;;;;;;;36.88;22.68;98799.00;4974678;28;20084;-77
2023/09/22 10:27:00;;;;;;;;;;;;;;;36.74;22.90;98796.16;4974502;28;19922;-78
2023/09/22 10:29:32;;;;;;;;;;;;;;;36.50;23.15;98787.94;4973602;28;20267;-76
2023/09/22 10:32:21;;;;;;;;;;;;;;;36.64;22.91;98788.06;4974511;28;19922;-79
2023/09/22 10:35:00;;;;;;;;;;;;;;;36.52;22.95;98788.44;4975570;28;19918;-77
2023/09/22 10:37:28;;;;;;;;;;;;;;;36.27;22.45;98783.25;4974771;28;19965;-79
2023/09/22 10:39:54;;;;;;;;;;;;;;;36.16;23.23;98777.06;4973021;28;19925;-79
2023/09/22 10:42:27;;;;;;;;;;;;;;;36.16;23.51;98775.16;4974402;28;20004;-81
2023/09/22 10:44:58;;;;;;;;;;;;;;;36.11;23.67;98771.69;4974742;28;19949;-78
2023/09/22 10:47:27;;;;;;;;;;;;;;;36.08;23.70;98773.06;4973167;28;19924;-83
2023/09/22 10:49:53;;;;;;;;;;;;;;;35.98;23.45;98762.28;4974292;28;20424;-79
2023/09/22 10:52:18;;;;;;;;;;;;;;;35.90;23.40;98762.88;4957267;28;19918;-78
2023/09/22 10:54:47;;;;;;;;;;;;;;;35.88;23.29;98765.06;4973049;28;19930;-78
2023/09/22 10:57:27;;;;;;;;;;;;;;;35.84;23.54;98754.78;4957524;28;19929;-78
2023/09/22 10:59:52;;;;;;;;;;;;;;;35.78;23.83;98758.63;4972919;28;19925;-77
2023/09/22 11:02:22;;;;;;;;;;;;;;;35.69;23.87;98752.13;4974582;28;20271;-77
2023/09/22 11:04:49;;;;;;;;;;;;;;;35.72;23.98;98748.06;4973232;28;20398;-81
2023/09/22 11:07:29;;;;;;;;;;;;;;;35.70;24.11;98748.34;4957750;28;19922;-78
2023/09/22 11:09:54;;;;;;;;;;;;;;;35.68;23.86;98748.63;4975356;28;19918;-79
2023/09/22 11:12:20;;;;;;;;;;;;;;;35.59;24.06;98742.16;4957285;28;19918;-77
2023/09/22 11:14:46;;;;;;;;;;;;;;;35.38;23.72;98736.06;4956908;28;20279;-77
2023/09/22 11:17:11;;;;;;;;;;;;;;;35.18;24.22;98741.56;4973035;28;19918;-77
2023/09/22 11:19:44;;;;;;;;;;;;;;;35.08;24.36;98739.72;4973375;28;19922;-79
2023/09/22 11:22:09;;;;;;;;;;;;;;;34.92;24.84;98736.28;4974508;28;19918;-78
2023/09/22 11:24:35;;;;;;;;;;;;;;;34.71;24.53;98741.72;4974752;28;19919;-77
2023/09/22 11:27:03;;;;;;;;;;;;;;;34.57;25.10;98736.06;4973559;28;20008;-77
2023/09/22 11:29:29;;;;;;;;;;;;;;;34.56;24.84;98720.88;4957452;28;19925;-77
2023/09/22 11:31:56;;;;;;;;;;;;;;;34.55;25.40;98726.59;4974651;28;20005;-76
2023/09/22 11:34:23;;;;;;;;;;;;;;;34.25;25.57;98731.81;4979939;28;20308;-77
2023/09/22 11:36:50;;;;;;;;;;;;;;;34.24;25.62;98721.25;4984554;28;20374;-78
2023/09/22 11:39:26;;;;;;;;;;;;;;;34.15;25.86;98730.97;4984282;28;19918;-77
2023/09/22 11:41:51;;;;;;;;;;;;;;;34.04;25.93;98722.84;4983057;28;20061;-75
2023/09/22 11:44:17;;;;;;;;;;;;;;;33.97;25.62;98716.06;4981593;28;19933;-77
2023/09/22 11:46:45;;;;;;;;;;;;;;;33.83;25.64;98713.91;4981606;28;19925;-76
2023/09/22 11:49:12;;;;;;;;;;;;;;;33.57;29.46;98714.94;4980732;28;19918;-76
2023/09/22 11:51:38;;;;;;;;;;;;;;;33.34;28.46;98711.66;4978174;28;20393;-78
2023/09/22 11:54:03;;;;;;;;;;;;;;;33.16;28.79;98708.34;4976786;28;19991;-76
2023/09/22 11:56:28;;;;;;;;;;;;;;;33.04;28.96;98707.75;4976139;28;19977;-79
2023/09/22 11:59:03;;;;;;;;;;;;;;;32.93;29.85;98704.19;4994551;28;19922;-75
2023/09/22 12:01:28;;;;;;;;;;;;;;;32.77;29.44;98706.03;4978821;28;19917;-78
2023/09/22 12:03:54;;;;;;;;;;;;;;;32.61;29.32;98698.91;4995361;28;19922;-75
2023/09/22 12:06:19;;;;;;;;;;;;;;;32.42;29.36;98693.13;4979068;28;20320;-74
2023/09/22 12:08:44;;;;;;;;;;;;;;;32.30;29.73;98696.03;4994997;28;20386;-74
2023/09/22 12:11:10;;;;;;;;;;;;;;;32.21;29.66;98695.72;4995007;28;19918;-75
2023/09/22 12:13:35;;;;;;;;;;;;;;;32.09;29.55;98698.59;4994738;28;19922;-74
2023/09/22 12:16:00;;;;;;;;;;;;;;;32.02;29.45;98705.25;4994604;28;19917;-76
2023/09/22 12:18:26;;;;;;;;;;;;;;;31.90;29.32;98706.25;4994834;28;19922;-75
2023/09/22 12:20:51;;;;;;;;;;;;;;;31.86;29.74;98699.72;4978936;28;20304;-76
2023/09/22 12:23:16;;;;;;;;;;;;;;;31.87;29.94;98703.25;4994763;28;19925;-75
2023/09/22 12:25:42;;;;;;;;;;;;;;;31.85;30.20;98694.56;4994386;28;19918;-76
2023/09/22 12:28:07;;;;;;;;;;;;;;;31.84;30.07;98691.06;4994578;28;20393;-77
2023/09/22 12:30:32;;;;;;;;;;;;;;;31.85;29.82;98691.88;4978487;28;19945;-77
2023/09/22 12:32:58;;;;;;;;;;;;;;;31.87;30.33;98687.06;4978205;28;19949;-75
2023/09/22 12:35:23;;;;;;;;;;;;;;;31.80;30.93;98686.44;4994672;28;19918;-76
2023/09/22 12:37:52;;;;;;;;;;;;;;;31.76;30.08;98685.34;4994498;28;20005;-74
2023/09/22 12:40:18;;;;;;;;;;;;;;;31.66;30.45;98676.09;4995279;28;19918;-76
2023/09/22 12:42:43;;;;;;;;;;;;;;;31.65;30.28;98682.56;4977836;28;19918;-73